Time;durP1;ratioP1;P1;durP2;ratioP2;P2;SDS_P1;SDS_P2;PMS_P1;PMS_P2;Temp;Humidity;BMP_temperature;BMP_pressure;BME280_temperature;BME280_humidity;BME280_pressure;Samples;Min_cycle;Max_cycle;Signal;HPM_P1;HPM_P2
2022/09/12 00:00:47;;;;;;;;;;;;;;;15.29;74.26;101665.19;5049391;28;19920;-56
2022/09/12 00:03:13;;;;;;;;;;;;;;;15.25;74.39;101663.88;5041255;28;20015;-55
2022/09/12 00:05:43;;;;;;;;;;;;;;;15.22;73.92;101662.41;5045630;28;20435;-55
2022/09/12 00:08:08;;;;;;;;;;;;;;;15.17;73.40;101654.94;5047718;28;20463;-51
2022/09/12 00:10:36;;;;;;;;;;;;;;;15.16;73.80;101663.97;5046403;28;20004;-55
2022/09/12 00:13:01;;;;;;;;;;;;;;;15.14;73.79;101649.94;5048327;28;20416;-54
2022/09/12 00:15:26;;;;;;;;;;;;;;;15.13;74.04;101653.63;5048288;28;19928;-55
2022/09/12 00:17:51;;;;;;;;;;;;;;;15.13;74.54;101650.13;5052288;28;19932;-54
2022/09/12 00:20:17;;;;;;;;;;;;;;;15.13;74.06;101652.78;5047000;28;19927;-54
2022/09/12 00:22:42;;;;;;;;;;;;;;;15.13;74.18;101647.44;5047009;28;19917;-54
2022/09/12 00:25:08;;;;;;;;;;;;;;;15.12;74.06;101646.63;5046342;28;19921;-55
2022/09/12 00:27:33;;;;;;;;;;;;;;;15.11;74.37;101646.78;5048026;28;19917;-53
2022/09/12 00:29:58;;;;;;;;;;;;;;;15.09;74.43;101649.66;5047556;28;19917;-55
2022/09/12 00:32:23;;;;;;;;;;;;;;;15.09;74.51;101646.16;5046509;28;19913;-54
2022/09/12 00:34:48;;;;;;;;;;;;;;;15.06;74.35;101643.84;5044213;28;19921;-54
2022/09/12 00:37:14;;;;;;;;;;;;;;;15.05;74.36;101644.84;5044206;28;19939;-55
2022/09/12 00:39:39;;;;;;;;;;;;;;;15.02;74.34;101640.66;5043373;28;19952;-55
2022/09/12 00:42:04;;;;;;;;;;;;;;;15.01;74.64;101643.53;5045589;28;19979;-54
2022/09/12 00:44:29;;;;;;;;;;;;;;;15.01;74.13;101635.50;5047944;28;19917;-54
2022/09/12 00:47:13;;;;;;;;;;;;;;;15.01;74.31;101633.66;5040472;28;20411;-55
2022/09/12 00:49:43;;;;;;;;;;;;;;;14.98;74.77;101634.00;5052606;28;20003;-53
2022/09/12 00:52:26;;;;;;;;;;;;;;;14.94;74.85;101637.22;5044153;28;20380;-54
2022/09/12 00:54:56;;;;;;;;;;;;;;;14.93;75.25;101624.88;5059237;28;20379;-56
2022/09/12 00:57:25;;;;;;;;;;;;;;;14.92;75.24;101631.22;5042452;28;19925;-52
2022/09/12 00:59:57;;;;;;;;;;;;;;;14.90;75.06;101623.38;5046952;28;19979;-54
2022/09/12 01:02:22;;;;;;;;;;;;;;;14.87;75.70;101621.09;5042062;28;19924;-54
2022/09/12 01:04:48;;;;;;;;;;;;;;;14.83;75.79;101620.59;5047608;28;19917;-53
2022/09/12 01:07:14;;;;;;;;;;;;;;;14.82;75.74;101618.13;5047261;28;19944;-54
2022/09/12 01:09:40;;;;;;;;;;;;;;;14.78;75.73;101619.50;5045878;28;19917;-55
2022/09/12 01:12:06;;;;;;;;;;;;;;;14.69;75.62;101618.69;5040996;28;20658;-54
2022/09/12 01:14:31;;;;;;;;;;;;;;;14.64;75.80;101621.06;5047854;28;19928;-55
2022/09/12 01:16:56;;;;;;;;;;;;;;;14.60;76.02;101619.78;5044417;28;20026;-54
2022/09/12 01:19:39;;;;;;;;;;;;;;;14.58;76.05;101613.78;5041161;28;20372;-54
2022/09/12 01:22:23;;;;;;;;;;;;;;;14.56;75.89;101613.13;5041770;28;19919;-54
2022/09/12 01:25:01;;;;;;;;;;;;;;;14.53;76.24;101614.31;5044861;28;19925;-54
2022/09/12 01:27:39;;;;;;;;;;;;;;;14.50;75.94;101613.84;5047342;28;19942;-53
2022/09/12 01:30:04;;;;;;;;;;;;;;;14.49;75.85;101609.50;5041240;28;19952;-55
2022/09/12 01:32:37;;;;;;;;;;;;;;;14.48;75.83;101603.31;5043247;28;19920;-54
2022/09/12 01:35:30;;;;;;;;;;;;;;;14.48;75.90;101600.66;5042224;28;20463;-54
2022/09/12 01:37:58;;;;;;;;;;;;;;;14.48;76.03;101595.31;5037713;28;19959;-54
2022/09/12 01:40:30;;;;;;;;;;;;;;;14.49;75.92;101599.66;5043762;28;20050;-54
2022/09/12 01:43:16;;;;;;;;;;;;;;;14.49;76.52;101594.31;5043405;28;19967;-54
2022/09/12 01:45:49;;;;;;;;;;;;;;;14.43;76.32;101586.97;5052497;28;19920;-54
2022/09/12 01:48:19;;;;;;;;;;;;;;;14.40;76.05;101583.78;5051062;28;19917;-55
2022/09/12 01:50:55;;;;;;;;;;;;;;;14.36;76.40;101583.31;5051793;28;19969;-54
2022/09/12 01:53:30;;;;;;;;;;;;;;;14.34;76.33;101588.00;5050300;28;19923;-54
2022/09/12 01:56:10;;;;;;;;;;;;;;;14.26;77.49;101588.06;5050290;28;19924;-54
2022/09/12 01:58:42;;;;;;;;;;;;;;;14.19;77.43;101587.94;5050758;28;20011;-53
2022/09/12 02:01:20;;;;;;;;;;;;;;;14.20;77.27;101572.75;5052042;28;19925;-54
2022/09/12 02:04:04;;;;;;;;;;;;;;;14.23;76.97;101572.38;5051440;28;20033;-55
2022/09/12 02:06:36;;;;;;;;;;;;;;;14.27;77.58;101576.38;5041839;28;19917;-53
2022/09/12 02:09:05;;;;;;;;;;;;;;;14.26;77.78;101569.38;5051754;28;19924;-53
2022/09/12 02:11:33;;;;;;;;;;;;;;;14.24;77.47;101568.72;5049990;28;19938;-55
2022/09/12 02:14:02;;;;;;;;;;;;;;;14.24;77.53;101556.19;5050366;28;19924;-54
2022/09/12 02:16:34;;;;;;;;;;;;;;;14.23;77.35;101559.03;5049971;28;20039;-55
2022/09/12 02:19:02;;;;;;;;;;;;;;;14.22;77.25;101560.03;5048290;28;19913;-55
2022/09/12 02:21:31;;;;;;;;;;;;;;;14.21;77.38;101561.06;5048452;28;20289;-55
2022/09/12 02:23:58;;;;;;;;;;;;;;;14.22;77.00;101568.06;5039461;28;19921;-55
2022/09/12 02:26:27;;;;;;;;;;;;;;;14.22;77.39;101565.38;5045807;28;19917;-56
2022/09/12 02:28:53;;;;;;;;;;;;;;;14.19;77.25;101563.91;5047078;28;19917;-55
2022/09/12 02:31:24;;;;;;;;;;;;;;;14.19;77.49;101560.41;5044225;28;19986;-54
2022/09/12 02:33:52;;;;;;;;;;;;;;;14.17;77.45;101567.75;5048304;28;19925;-55
2022/09/12 02:36:21;;;;;;;;;;;;;;;14.16;77.13;101569.56;5040697;28;20851;-55
2022/09/12 02:38:47;;;;;;;;;;;;;;;14.15;77.33;101567.91;5046596;28;19916;-54
2022/09/12 02:41:14;;;;;;;;;;;;;;;14.13;77.16;101563.75;5047843;28;19973;-55
2022/09/12 02:43:39;;;;;;;;;;;;;;;14.07;77.24;101562.63;5046492;28;20288;-53
2022/09/12 02:46:07;;;;;;;;;;;;;;;14.06;77.05;101560.97;5044979;28;19924;-53
2022/09/12 02:48:35;;;;;;;;;;;;;;;14.07;77.19;101554.59;5050752;28;19924;-54
2022/09/12 02:51:00;;;;;;;;;;;;;;;14.08;76.94;101553.59;5050753;28;19971;-51
2022/09/12 02:53:25;;;;;;;;;;;;;;;14.09;77.24;101549.09;5042366;28;20415;-53
2022/09/12 02:55:51;;;;;;;;;;;;;;;14.07;77.04;101545.75;5052707;28;19924;-55
2022/09/12 02:58:19;;;;;;;;;;;;;;;14.06;76.96;101544.94;5047317;28;20335;-54
2022/09/12 03:00:56;;;;;;;;;;;;;;;14.06;77.19;101546.78;5046124;28;19924;-54
2022/09/12 03:03:34;;;;;;;;;;;;;;;14.04;76.95;101544.28;5052697;28;20015;-53
2022/09/12 03:06:00;;;;;;;;;;;;;;;14.03;76.82;101537.28;5049683;28;19996;-54
2022/09/12 03:08:36;;;;;;;;;;;;;;;14.02;76.96;101535.63;5045469;28;19921;-55
2022/09/12 03:11:22;;;;;;;;;;;;;;;14.00;77.23;101539.47;5044941;28;20034;-52
2022/09/12 03:14:00;;;;;;;;;;;;;;;14.01;76.75;101538.47;5045803;28;19917;-55
2022/09/12 03:16:32;;;;;;;;;;;;;;;14.00;76.97;101534.97;5042481;28;19932;-56
2022/09/12 03:18:58;;;;;;;;;;;;;;;13.99;77.10;101538.63;5046902;28;19917;-55
2022/09/12 03:21:35;;;;;;;;;;;;;;;13.99;77.34;101541.31;5046950;28;20019;-54
2022/09/12 03:24:03;;;;;;;;;;;;;;;14.00;77.50;101532.28;5055362;28;19917;-54
2022/09/12 03:26:31;;;;;;;;;;;;;;;14.03;78.01;101533.78;5050839;28;19917;-54
2022/09/12 03:28:58;;;;;;;;;;;;;;;14.00;78.01;101529.63;5046631;28;19917;-56
2022/09/12 03:31:23;;;;;;;;;;;;;;;13.98;78.06;101528.13;5046113;28;19951;-54
2022/09/12 03:33:48;;;;;;;;;;;;;;;13.97;77.84;101529.97;5047031;28;19921;-55
2022/09/12 03:36:31;;;;;;;;;;;;;;;13.98;77.46;101523.63;5048482;28;19921;-53
2022/09/12 03:38:57;;;;;;;;;;;;;;;13.97;77.47;101524.63;5045042;28;20499;-55
2022/09/12 03:41:22;;;;;;;;;;;;;;;13.98;77.57;101528.13;5045639;28;19923;-54
2022/09/12 03:43:47;;;;;;;;;;;;;;;14.00;77.84;101528.78;5047045;28;20012;-54
2022/09/12 03:46:12;;;;;;;;;;;;;;;14.02;77.96;101522.25;5046434;28;19921;-55
2022/09/12 03:48:38;;;;;;;;;;;;;;;14.03;77.47;101520.41;5048285;28;20265;-55
2022/09/12 03:51:04;;;;;;;;;;;;;;;14.03;77.95;101521.25;5047433;28;19913;-55
2022/09/12 03:53:29;;;;;;;;;;;;;;;14.03;77.97;101521.25;5047354;28;20347;-55
2022/09/12 03:55:54;;;;;;;;;;;;;;;14.02;77.56;101526.78;5053916;28;20091;-55
2022/09/12 03:58:20;;;;;;;;;;;;;;;14.01;77.33;101517.94;5047028;28;19928;-55
2022/09/12 04:00:45;;;;;;;;;;;;;;;14.00;77.43;101518.94;5049120;28;19935;-55
2022/09/12 04:03:10;;;;;;;;;;;;;;;13.98;77.97;101517.44;5045106;28;20019;-54
2022/09/12 04:05:35;;;;;;;;;;;;;;;13.95;78.13;101514.13;5048226;28;19912;-55
2022/09/12 04:08:01;;;;;;;;;;;;;;;13.92;78.21;101517.16;5051085;28;20034;-55
2022/09/12 04:10:26;;;;;;;;;;;;;;;13.93;78.31;101513.47;5045639;28;19913;-54
2022/09/12 04:12:51;;;;;;;;;;;;;;;13.92;78.32;101506.47;5047512;28;20003;-54
2022/09/12 04:15:17;;;;;;;;;;;;;;;13.91;78.49;101518.16;5048526;28;19920;-55
2022/09/12 04:17:42;;;;;;;;;;;;;;;13.92;78.59;101511.81;5049936;28;19956;-55
2022/09/12 04:20:08;;;;;;;;;;;;;;;13.92;78.41;101511.81;5048746;28;19919;-52
2022/09/12 04:22:33;;;;;;;;;;;;;;;13.91;78.58;101507.47;5043142;28;19913;-54
2022/09/12 04:24:58;;;;;;;;;;;;;;;13.93;78.82;101500.13;5046580;28;19970;-54
2022/09/12 04:27:23;;;;;;;;;;;;;;;13.92;78.50;101498.47;5044601;28;19952;-52
2022/09/12 04:29:48;;;;;;;;;;;;;;;13.93;78.41;101499.28;5049926;28;19921;-54
2022/09/12 04:32:14;;;;;;;;;;;;;;;13.91;78.21;101494.13;5048696;28;20350;-54
2022/09/12 04:34:39;;;;;;;;;;;;;;;13.91;78.53;101490.63;5052170;28;20375;-53
2022/09/12 04:37:04;;;;;;;;;;;;;;;13.90;77.95;101487.13;5048518;28;19936;-55
2022/09/12 04:39:29;;;;;;;;;;;;;;;13.90;77.80;101489.81;5044594;28;20534;-54
2022/09/12 04:41:55;;;;;;;;;;;;;;;13.90;77.91;101491.63;5047871;28;19974;-53
2022/09/12 04:44:20;;;;;;;;;;;;;;;13.89;78.19;101487.31;5047582;28;20319;-55
2022/09/12 04:46:45;;;;;;;;;;;;;;;13.88;78.30;101486.47;5047178;28;20000;-54
2022/09/12 04:49:11;;;;;;;;;;;;;;;13.87;78.52;101489.28;5048024;28;19921;-54
2022/09/12 04:51:37;;;;;;;;;;;;;;;13.87;78.82;101491.97;5052303;28;19959;-54
2022/09/12 04:54:05;;;;;;;;;;;;;;;13.86;79.04;101496.47;5041612;28;19924;-54
2022/09/12 04:56:30;;;;;;;;;;;;;;;13.83;78.80;101494.16;5048625;28;19913;-52
2022/09/12 04:58:57;;;;;;;;;;;;;;;13.85;79.03;101489.47;5048415;28;20265;-52
2022/09/12 05:01:22;;;;;;;;;;;;;;;13.84;79.19;101485.13;5039166;28;19921;-54
2022/09/12 05:03:47;;;;;;;;;;;;;;;13.82;79.17;101486.31;5043087;28;20313;-54
2022/09/12 05:06:14;;;;;;;;;;;;;;;13.82;79.20;101486.31;5043225;28;19916;-54
2022/09/12 05:08:39;;;;;;;;;;;;;;;13.81;78.41;101490.84;5044411;28;19934;-51
2022/09/12 05:11:06;;;;;;;;;;;;;;;13.81;78.72;101485.50;5043064;28;19920;-52
2022/09/12 05:13:32;;;;;;;;;;;;;;;13.83;78.77;101491.50;5037003;28;19983;-53
2022/09/12 05:15:57;;;;;;;;;;;;;;;13.84;78.94;101490.47;5042986;28;19960;-54
2022/09/12 05:18:23;;;;;;;;;;;;;;;13.85;78.49;101497.47;5046135;28;20364;-54
2022/09/12 05:20:48;;;;;;;;;;;;;;;13.87;79.10;101499.97;5045432;28;19929;-54
2022/09/12 05:23:13;;;;;;;;;;;;;;;13.87;78.93;101500.81;5050941;28;20597;-54
2022/09/12 05:25:38;;;;;;;;;;;;;;;13.88;78.96;101499.81;5050714;28;19920;-55
2022/09/12 05:28:04;;;;;;;;;;;;;;;13.87;79.31;101503.47;5047876;28;20007;-54
2022/09/12 05:30:29;;;;;;;;;;;;;;;13.86;79.53;101493.81;5056611;28;19924;-54
2022/09/12 05:32:55;;;;;;;;;;;;;;;13.86;79.33;101496.47;5048987;28;19923;-55
2022/09/12 05:35:20;;;;;;;;;;;;;;;13.87;79.22;101494.63;5058836;28;20295;-53
2022/09/12 05:37:45;;;;;;;;;;;;;;;13.89;79.48;101498.81;5050615;28;19916;-54
2022/09/12 05:40:12;;;;;;;;;;;;;;;13.91;79.33;101499.47;5044782;28;19927;-53
2022/09/12 05:42:37;;;;;;;;;;;;;;;13.93;79.36;101492.13;5061047;28;19916;-53
2022/09/12 05:45:03;;;;;;;;;;;;;;;13.93;79.50;101489.44;5048420;28;19916;-56
2022/09/12 05:47:28;;;;;;;;;;;;;;;13.95;79.47;101503.44;5046689;28;19917;-54
2022/09/12 05:49:53;;;;;;;;;;;;;;;13.98;79.62;101501.44;5049762;28;19917;-55
2022/09/12 05:52:19;;;;;;;;;;;;;;;14.00;79.69;101510.09;5054611;28;20011;-55
2022/09/12 05:54:44;;;;;;;;;;;;;;;14.02;79.52;101502.72;5045921;28;19928;-54
2022/09/12 05:57:09;;;;;;;;;;;;;;;14.01;79.84;101504.56;5048909;28;19936;-55
2022/09/12 05:59:34;;;;;;;;;;;;;;;14.03;79.64;101504.41;5052489;28;20011;-55
2022/09/12 06:02:00;;;;;;;;;;;;;;;14.04;79.99;101509.56;5047568;28;19917;-52
2022/09/12 06:04:26;;;;;;;;;;;;;;;14.07;79.87;101516.38;5036049;28;20030;-54
2022/09/12 06:06:52;;;;;;;;;;;;;;;14.08;80.07;101515.38;5048598;28;19927;-53
2022/09/12 06:09:17;;;;;;;;;;;;;;;14.09;80.21;101506.34;5048180;28;19920;-54
2022/09/12 06:11:42;;;;;;;;;;;;;;;14.11;80.08;101504.34;5045428;28;20416;-53
2022/09/12 06:14:09;;;;;;;;;;;;;;;14.13;79.68;101505.81;5043197;28;19923;-53
2022/09/12 06:16:34;;;;;;;;;;;;;;;14.13;80.23;101505.00;5050341;28;19924;-52
2022/09/12 06:19:05;;;;;;;;;;;;;;;14.13;79.96;101505.00;5047086;28;19916;-54
2022/09/12 06:21:31;;;;;;;;;;;;;;;14.13;80.05;101505.00;5049590;28;19921;-54
2022/09/12 06:23:57;;;;;;;;;;;;;;;14.12;80.10;101495.31;5047642;28;19923;-55
2022/09/12 06:26:24;;;;;;;;;;;;;;;14.10;79.68;101502.69;5048558;28;19924;-55
2022/09/12 06:28:50;;;;;;;;;;;;;;;14.08;79.74;101502.03;5046532;28;19928;-53
2022/09/12 06:31:17;;;;;;;;;;;;;;;14.06;79.71;101507.53;5045625;28;20020;-56
2022/09/12 06:33:44;;;;;;;;;;;;;;;14.04;79.38;101506.88;5047079;28;19925;-53
2022/09/12 06:36:17;;;;;;;;;;;;;;;14.04;79.79;101500.72;5044339;28;19962;-55
2022/09/12 06:38:43;;;;;;;;;;;;;;;14.03;79.88;101505.22;5052370;28;20300;-55
2022/09/12 06:41:10;;;;;;;;;;;;;;;14.06;80.33;101504.03;5057882;28;19912;-53
2022/09/12 06:43:35;;;;;;;;;;;;;;;14.06;80.14;101504.88;5044251;28;20006;-53
2022/09/12 06:46:01;;;;;;;;;;;;;;;14.07;80.20;101500.34;5045926;28;20414;-55
2022/09/12 06:48:26;;;;;;;;;;;;;;;14.06;80.27;101502.19;5047631;28;19933;-54
2022/09/12 06:50:58;;;;;;;;;;;;;;;14.08;79.76;101507.38;5046411;28;19921;-54
2022/09/12 06:53:24;;;;;;;;;;;;;;;14.09;79.74;101509.84;5045884;28;20316;-54
2022/09/12 06:55:55;;;;;;;;;;;;;;;14.11;80.85;101490.97;5046873;28;19928;-52
2022/09/12 06:58:20;;;;;;;;;;;;;;;14.21;81.03;101503.13;5046295;28;19925;-56
2022/09/12 07:00:46;;;;;;;;;;;;;;;14.24;81.08;101508.09;5045936;28;19917;-53
2022/09/12 07:03:11;;;;;;;;;;;;;;;14.27;80.82;101499.72;5046447;28;19920;-51
2022/09/12 07:05:36;;;;;;;;;;;;;;;14.32;81.22;101499.19;5050993;28;20387;-51
2022/09/12 07:08:02;;;;;;;;;;;;;;;14.38;81.37;101503.81;5042111;28;19952;-55
2022/09/12 07:10:27;;;;;;;;;;;;;;;14.44;81.50;101496.94;5050262;28;19940;-55
2022/09/12 07:12:53;;;;;;;;;;;;;;;14.47;81.05;101500.09;5049376;28;19959;-55
2022/09/12 07:15:18;;;;;;;;;;;;;;;14.52;81.48;101500.41;5048919;28;19920;-55
2022/09/12 07:17:43;;;;;;;;;;;;;;;14.57;81.78;101492.66;5043223;28;19921;-55
2022/09/12 07:20:08;;;;;;;;;;;;;;;14.66;81.75;101489.91;5049572;28;19913;-55
2022/09/12 07:22:33;;;;;;;;;;;;;;;14.74;82.13;101495.16;5044402;28;19948;-54
2022/09/12 07:24:59;;;;;;;;;;;;;;;14.80;82.11;101495.28;5051234;28;19942;-55
2022/09/12 07:27:24;;;;;;;;;;;;;;;14.86;82.51;101485.69;5043641;28;19913;-53
2022/09/12 07:29:49;;;;;;;;;;;;;;;14.93;82.52;101488.47;5051115;28;19923;-54
2022/09/12 07:32:14;;;;;;;;;;;;;;;14.98;82.37;101494.94;5051079;28;19913;-55
2022/09/12 07:34:40;;;;;;;;;;;;;;;15.05;82.96;101492.38;5050053;28;20299;-52
2022/09/12 07:37:05;;;;;;;;;;;;;;;15.04;82.79;101499.56;5040171;28;19923;-55
2022/09/12 07:39:31;;;;;;;;;;;;;;;15.09;83.12;101497.16;5039636;28;19913;-53
2022/09/12 07:41:56;;;;;;;;;;;;;;;15.14;83.06;101494.75;5045378;28;19951;-55
2022/09/12 07:44:22;;;;;;;;;;;;;;;15.20;83.54;101498.53;5043851;28;20489;-55
2022/09/12 07:46:47;;;;;;;;;;;;;;;15.23;83.64;101492.81;5045251;28;20007;-55
2022/09/12 07:49:12;;;;;;;;;;;;;;;15.31;83.96;101499.91;5053754;28;20376;-55
2022/09/12 07:51:37;;;;;;;;;;;;;;;15.32;84.21;101502.41;5051266;28;19913;-55
2022/09/12 07:54:06;;;;;;;;;;;;;;;15.36;84.70;101506.38;5048944;28;20508;-55
2022/09/12 07:56:31;;;;;;;;;;;;;;;15.39;84.96;101505.19;5053751;28;20446;-55
2022/09/12 07:58:57;;;;;;;;;;;;;;;15.40;84.70;101502.31;5048167;28;20498;-53
2022/09/12 08:01:23;;;;;;;;;;;;;;;15.45;85.13;101507.13;5044503;28;19916;-55
2022/09/12 08:03:49;;;;;;;;;;;;;;;15.47;85.43;101507.75;5042327;28;19917;-54
2022/09/12 08:06:15;;;;;;;;;;;;;;;15.49;85.23;101503.03;5046999;28;20006;-54
2022/09/12 08:08:41;;;;;;;;;;;;;;;15.53;85.31;101507.00;5049183;28;20398;-53
2022/09/12 08:11:07;;;;;;;;;;;;;;;15.59;85.65;101503.59;5056287;28;20009;-54
2022/09/12 08:13:33;;;;;;;;;;;;;;;15.67;85.59;101500.84;5039683;28;20402;-54
2022/09/12 08:16:00;;;;;;;;;;;;;;;15.77;85.51;101504.03;5043166;28;19924;-51
2022/09/12 08:18:25;;;;;;;;;;;;;;;15.88;85.84;101512.59;5047612;28;19921;-54
2022/09/12 08:21:02;;;;;;;;;;;;;;;15.96;86.07;101509.81;5045022;28;19913;-54
2022/09/12 08:23:27;;;;;;;;;;;;;;;16.04;85.43;101509.69;5045998;28;19917;-55
2022/09/12 08:26:00;;;;;;;;;;;;;;;16.09;85.34;101512.63;5045060;28;19916;-54
2022/09/12 08:28:25;;;;;;;;;;;;;;;16.15;85.37;101514.53;5043517;28;19912;-53
2022/09/12 08:30:51;;;;;;;;;;;;;;;16.23;84.88;101516.28;5048775;28;19913;-55
2022/09/12 08:33:16;;;;;;;;;;;;;;;16.28;84.60;101519.22;5048634;28;19921;-54
2022/09/12 08:35:42;;;;;;;;;;;;;;;16.33;84.60;101512.25;5050754;28;19924;-54
2022/09/12 08:38:07;;;;;;;;;;;;;;;16.41;84.84;101522.00;5041251;28;19923;-54
2022/09/12 08:40:38;;;;;;;;;;;;;;;16.50;84.76;101520.06;5039832;28;19913;-54
2022/09/12 08:43:10;;;;;;;;;;;;;;;16.59;84.96;101514.34;5048020;28;19916;-52
2022/09/12 08:45:39;;;;;;;;;;;;;;;16.72;85.01;101510.97;5048309;28;20019;-52
2022/09/12 08:48:07;;;;;;;;;;;;;;;16.84;84.63;101505.91;5046181;28;20334;-55
2022/09/12 08:50:32;;;;;;;;;;;;;;;16.96;84.57;101513.22;5044527;28;19924;-54
2022/09/12 08:52:58;;;;;;;;;;;;;;;17.07;84.82;101511.88;5042254;28;19917;-55
2022/09/12 08:55:31;;;;;;;;;;;;;;;17.19;84.90;101512.97;5048757;28;19916;-55
2022/09/12 08:57:58;;;;;;;;;;;;;;;17.40;84.86;101512.03;5050166;28;19952;-55
2022/09/12 09:00:27;;;;;;;;;;;;;;;17.55;83.80;101510.03;5045558;28;19913;-55
2022/09/12 09:02:52;;;;;;;;;;;;;;;17.69;83.37;101516.34;5045373;28;19916;-53
2022/09/12 09:05:36;;;;;;;;;;;;;;;17.84;82.46;101510.78;5041573;28;19988;-53
2022/09/12 09:08:07;;;;;;;;;;;;;;;17.98;82.11;101512.50;5047682;28;19925;-53
2022/09/12 09:10:45;;;;;;;;;;;;;;;18.07;80.90;101511.28;5048950;28;20406;-54
2022/09/12 09:16:25;;;;;;;;;;;;;;;18.29;79.87;101498.50;5042188;28;19974;-51
2022/09/12 09:18:51;;;;;;;;;;;;;;;18.38;79.41;101499.13;5048206;28;19935;-53
2022/09/12 09:21:28;;;;;;;;;;;;;;;18.49;78.64;101493.94;5046971;28;19925;-55
2022/09/12 09:23:56;;;;;;;;;;;;;;;18.66;79.18;101493.56;5041488;28;19960;-54
2022/09/12 09:26:27;;;;;;;;;;;;;;;18.84;79.18;101494.59;5041057;28;19917;-54
2022/09/12 09:28:56;;;;;;;;;;;;;;;19.11;78.35;101487.31;5045361;28;19920;-55
2022/09/12 09:31:22;;;;;;;;;;;;;;;19.34;77.77;101486.81;5042115;28;19924;-54
2022/09/12 09:33:49;;;;;;;;;;;;;;;19.54;77.40;101492.16;5042879;28;19924;-55
2022/09/12 09:36:33;;;;;;;;;;;;;;;19.66;76.15;101492.28;5041568;28;19924;-55
2022/09/12 09:39:04;;;;;;;;;;;;;;;19.67;75.02;101486.72;5039806;28;20012;-54
2022/09/12 09:41:48;;;;;;;;;;;;;;;19.68;74.75;101485.69;5043051;28;19924;-54
2022/09/12 09:44:13;;;;;;;;;;;;;;;19.79;74.39;101484.16;5040666;28;20371;-53
2022/09/12 09:46:39;;;;;;;;;;;;;;;19.94;73.79;101482.00;5043328;28;19917;-55
2022/09/12 09:49:05;;;;;;;;;;;;;;;20.12;73.90;101470.47;5042478;28;19960;-55
2022/09/12 09:51:35;;;;;;;;;;;;;;;20.29;73.59;101473.47;5042661;28;19996;-56
2022/09/12 09:54:16;;;;;;;;;;;;;;;20.42;72.97;101473.41;5043589;28;20032;-56
2022/09/12 09:56:41;;;;;;;;;;;;;;;20.54;72.62;101466.25;5038106;28;19925;-56
2022/09/12 09:59:11;;;;;;;;;;;;;;;20.70;72.22;101460.28;5040729;28;19917;-54
2022/09/12 10:01:38;;;;;;;;;;;;;;;20.80;70.37;101467.84;5045064;28;20857;-54
2022/09/12 10:04:04;;;;;;;;;;;;;;;20.87;69.98;101465.94;5044581;28;20008;-54
2022/09/12 10:06:31;;;;;;;;;;;;;;;20.95;69.66;101451.31;5052033;28;20358;-55
2022/09/12 10:09:23;;;;;;;;;;;;;;;21.14;69.26;101449.44;5045278;28;19917;-55
2022/09/12 10:11:49;;;;;;;;;;;;;;;21.29;68.76;101444.50;5039849;28;19935;-55
2022/09/12 10:14:29;;;;;;;;;;;;;;;21.39;68.12;101452.88;5051237;28;19932;-55
2022/09/12 10:16:55;;;;;;;;;;;;;;;21.34;66.98;101455.44;5048159;28;19923;-55
2022/09/12 10:19:24;;;;;;;;;;;;;;;21.40;67.16;101446.47;5051711;28;20003;-54
2022/09/12 10:21:51;;;;;;;;;;;;;;;21.53;66.96;101440.88;5044832;28;20399;-55
2022/09/12 10:24:29;;;;;;;;;;;;;;;21.60;65.74;101440.78;5054871;28;19943;-54
2022/09/12 10:26:55;;;;;;;;;;;;;;;21.59;65.23;101433.72;5053666;28;20247;-55
2022/09/12 10:29:23;;;;;;;;;;;;;;;21.68;64.99;101431.50;5042519;28;19924;-55
2022/09/12 10:31:51;;;;;;;;;;;;;;;21.77;65.02;101433.69;5055851;28;19919;-55
2022/09/12 10:34:31;;;;;;;;;;;;;;;21.78;64.52;101424.50;5041376;28;19923;-55
2022/09/12 10:37:00;;;;;;;;;;;;;;;21.87;63.77;101422.28;5046937;28;19917;-55
2022/09/12 10:39:26;;;;;;;;;;;;;;;21.79;62.40;101417.22;5043115;28;19917;-55
2022/09/12 10:41:51;;;;;;;;;;;;;;;21.75;62.96;101406.06;5046833;28;20044;-54
2022/09/12 10:44:17;;;;;;;;;;;;;;;21.76;63.02;101410.41;5044303;28;20360;-55
2022/09/12 10:46:43;;;;;;;;;;;;;;;21.76;62.84;101396.88;5046024;28;19924;-53
2022/09/12 10:49:13;;;;;;;;;;;;;;;21.83;63.09;101403.00;5053613;28;19913;-55
2022/09/12 10:51:38;;;;;;;;;;;;;;;21.85;61.11;101395.50;5045951;28;19917;-55
2022/09/12 10:54:06;;;;;;;;;;;;;;;21.87;60.95;101396.06;5049388;28;19923;-55
2022/09/12 10:56:38;;;;;;;;;;;;;;;21.87;60.94;101401.50;5044633;28;19931;-53
2022/09/12 10:59:19;;;;;;;;;;;;;;;21.96;61.80;101400.09;5045680;28;19955;-55
2022/09/12 11:01:48;;;;;;;;;;;;;;;22.02;59.78;101392.94;5048263;28;19956;-54
2022/09/12 11:04:29;;;;;;;;;;;;;;;21.99;59.80;101381.78;5049438;28;19928;-55
2022/09/12 11:07:19;;;;;;;;;;;;;;;21.99;59.69;101382.59;5044626;28;19956;-55
2022/09/12 11:09:44;;;;;;;;;;;;;;;22.06;60.20;101377.09;5046652;28;19920;-55
2022/09/12 11:12:12;;;;;;;;;;;;;;;22.14;60.00;101376.75;5042830;28;19936;-55
2022/09/12 11:14:38;;;;;;;;;;;;;;;22.24;60.62;101376.97;5042538;28;19987;-55
2022/09/12 11:17:22;;;;;;;;;;;;;;;22.33;60.15;101372.88;5047171;28;19916;-52
2022/09/12 11:20:00;;;;;;;;;;;;;;;22.37;59.81;101365.94;5044743;28;20394;-54
2022/09/12 11:22:55;;;;;;;;;;;;;;;22.48;60.27;101367.81;5043965;28;19920;-54
2022/09/12 11:25:33;;;;;;;;;;;;;;;22.64;59.61;101374.41;5036286;28;19928;-54
2022/09/12 11:28:11;;;;;;;;;;;;;;;22.70;58.72;101372.63;5042642;28;19917;-52
2022/09/12 11:30:41;;;;;;;;;;;;;;;22.76;57.69;101377.06;5044693;28;20015;-54
2022/09/12 11:33:13;;;;;;;;;;;;;;;22.83;57.70;101362.38;5040063;28;19943;-55
2022/09/12 11:35:45;;;;;;;;;;;;;;;22.89;57.35;101373.34;5042413;28;20482;-55
2022/09/12 11:38:29;;;;;;;;;;;;;;;22.93;57.55;101371.78;5049436;28;19987;-55
2022/09/12 11:41:14;;;;;;;;;;;;;;;22.97;57.33;101367.53;5043374;28;19917;-56
2022/09/12 11:43:42;;;;;;;;;;;;;;;22.98;55.15;101378.13;5042745;28;19917;-55
2022/09/12 11:46:16;;;;;;;;;;;;;;;22.95;54.98;101378.59;5043457;28;19924;-56
2022/09/12 11:49:00;;;;;;;;;;;;;;;23.03;56.04;101374.69;5042881;28;20003;-55
2022/09/12 11:51:28;;;;;;;;;;;;;;;23.14;57.15;101382.81;5035344;28;20103;-55
2022/09/12 11:54:08;;;;;;;;;;;;;;;23.23;56.79;101385.13;5043231;28;20450;-55
2022/09/12 11:56:37;;;;;;;;;;;;;;;23.24;55.29;101367.81;5039232;28;20021;-55
2022/09/12 11:59:08;;;;;;;;;;;;;;;23.12;54.85;101363.22;5040436;28;19951;-54
2022/09/12 12:01:37;;;;;;;;;;;;;;;23.12;55.34;101357.81;5042210;28;19931;-53
2022/09/12 12:04:06;;;;;;;;;;;;;;;23.20;54.58;101358.50;5041772;28;19921;-55
2022/09/12 12:06:52;;;;;;;;;;;;;;;23.22;54.23;101353.66;5036783;28;19928;-55
2022/09/12 12:09:17;;;;;;;;;;;;;;;23.28;53.27;101352.69;5039344;28;19924;-56
2022/09/12 12:11:52;;;;;;;;;;;;;;;23.31;53.59;101353.03;5037832;28;19921;-55
2022/09/12 12:14:41;;;;;;;;;;;;;;;23.41;54.61;101353.22;5045884;28;19916;-56
2022/09/12 12:17:12;;;;;;;;;;;;;;;23.51;54.64;101355.31;5040497;28;20299;-55
2022/09/12 12:19:37;;;;;;;;;;;;;;;23.57;53.17;101365.19;5039908;28;19971;-56
2022/09/12 12:22:05;;;;;;;;;;;;;;;23.63;53.73;101361.50;5040985;28;19975;-56
2022/09/12 12:24:32;;;;;;;;;;;;;;;23.67;52.99;101365.38;5040989;28;19962;-54
2022/09/12 12:27:02;;;;;;;;;;;;;;;23.69;53.12;101352.38;5041511;28;20023;-56
2022/09/12 12:29:31;;;;;;;;;;;;;;;23.74;53.47;101351.69;5044351;28;19920;-55
2022/09/12 12:32:02;;;;;;;;;;;;;;;23.77;52.85;101345.75;5041170;28;19917;-56
2022/09/12 12:34:30;;;;;;;;;;;;;;;23.81;51.80;101346.09;5039931;28;20605;-54
2022/09/12 12:36:56;;;;;;;;;;;;;;;23.84;51.97;101343.69;5041871;28;19944;-56
2022/09/12 12:39:41;;;;;;;;;;;;;;;23.95;52.76;101345.50;5043340;28;19956;-54
2022/09/12 12:42:07;;;;;;;;;;;;;;;24.10;50.97;101350.34;5031297;28;19917;-56
2022/09/12 12:44:44;;;;;;;;;;;;;;;24.15;50.54;101345.00;5046521;28;19921;-55
2022/09/12 12:47:18;;;;;;;;;;;;;;;24.18;49.99;101332.81;5040232;28;20380;-55